Time;durP1;ratioP1;P1;durP2;ratioP2;P2;SDS_P1;SDS_P2;PMS_P1;PMS_P2;Temp;Humidity;BMP_temperature;BMP_pressure;BME280_temperature;BME280_humidity;BME280_pressure;Samples;Min_cycle;Max_cycle;Signal;HPM_P1;HPM_P2
2021/04/04 00:00:22;;;;;;;6.57;2.90;;;;;;;-2.63;80.46;93508.13;2098593;28;20063;-83
2021/04/04 00:01:22;;;;;;;4.60;2.45;;;;;;;-2.63;80.24;93504.75;2086441;28;20029;-81
2021/04/04 00:02:23;;;;;;;4.70;2.97;;;;;;;-2.56;80.20;93507.56;2087788;28;20443;-81
2021/04/04 00:03:24;;;;;;;5.35;2.75;;;;;;;-2.63;80.51;93510.72;2082062;28;20462;-81
2021/04/04 00:04:24;;;;;;;5.40;3.17;;;;;;;-2.69;81.10;93514.63;2098128;28;20454;-80
2021/04/04 00:05:25;;;;;;;2.70;2.45;;;;;;;-2.67;81.15;93512.47;2104085;28;20031;-82
2021/04/04 00:06:25;;;;;;;5.25;3.03;;;;;;;-2.72;80.78;93509.25;2093965;28;20040;-82
2021/04/04 00:07:25;;;;;;;5.40;3.38;;;;;;;-2.82;81.20;93510.44;2099121;28;20064;-82
2021/04/04 00:08:26;;;;;;;4.50;2.53;;;;;;;-2.86;81.72;93512.91;2084561;28;20028;-81
2021/04/04 00:09:26;;;;;;;3.72;2.65;;;;;;;-2.81;81.71;93512.75;2078651;28;20089;-81
2021/04/04 00:10:27;;;;;;;5.25;2.70;;;;;;;-2.93;81.82;93509.31;2087632;28;20028;-81
2021/04/04 00:11:27;;;;;;;6.45;2.83;;;;;;;-2.91;81.76;93502.66;2095101;28;20029;-80
2021/04/04 00:12:27;;;;;;;6.10;2.63;;;;;;;-2.85;81.88;93501.38;2086885;28;20127;-81
2021/04/04 00:13:28;;;;;;;7.60;3.00;;;;;;;-2.82;81.50;93499.97;2085893;28;20029;-81
2021/04/04 00:14:28;;;;;;;3.08;2.65;;;;;;;-2.79;81.80;93500.09;2085015;28;20035;-81
2021/04/04 00:15:29;;;;;;;5.28;3.55;;;;;;;-2.75;81.41;93508.06;2095044;28;20033;-80
2021/04/04 00:16:29;;;;;;;5.68;3.00;;;;;;;-2.82;80.75;93502.59;2084990;28;20037;-81
2021/04/04 00:17:30;;;;;;;5.20;3.03;;;;;;;-2.75;81.17;93500.22;2095042;28;20037;-79
2021/04/04 00:18:30;;;;;;;5.32;2.90;;;;;;;-2.83;80.91;93503.69;2105478;28;20475;-78
2021/04/04 00:19:31;;;;;;;4.40;2.78;;;;;;;-2.90;81.22;93503.41;2102373;28;20024;-78
2021/04/04 00:20:32;;;;;;;5.28;2.90;;;;;;;-2.80;81.50;93503.03;2086335;28;20067;-81
2021/04/04 00:21:33;;;;;;;4.32;2.85;;;;;;;-2.76;81.19;93511.78;2081473;28;20092;-82
2021/04/04 00:22:33;;;;;;;4.13;2.88;;;;;;;-2.79;81.41;93504.56;2089704;28;20864;-81
2021/04/04 00:23:34;;;;;;;5.13;3.10;;;;;;;-2.96;81.69;93505.47;2102818;28;20091;-81
2021/04/04 00:24:34;;;;;;;4.75;2.70;;;;;;;-2.86;81.73;93501.69;2093889;28;20511;-81
2021/04/04 00:25:35;;;;;;;4.57;2.75;;;;;;;-2.89;81.33;93504.97;2082997;28;20033;-81
2021/04/04 00:26:35;;;;;;;5.40;2.70;;;;;;;-2.88;81.67;93498.66;2089502;28;20033;-82
2021/04/04 00:27:35;;;;;;;5.57;3.35;;;;;;;-2.84;82.12;93497.69;2098378;28;20032;-81
2021/04/04 00:28:37;;;;;;;6.30;3.25;;;;;;;-2.78;81.18;93495.63;2090220;28;20029;-80
2021/04/04 00:29:37;;;;;;;4.45;2.92;;;;;;;-2.87;81.06;93498.31;2077622;28;20060;-81
2021/04/04 00:30:37;;;;;;;7.60;3.08;;;;;;;-2.91;81.75;93500.03;2089924;28;20448;-80
2021/04/04 00:31:38;;;;;;;5.43;2.80;;;;;;;-3.03;81.90;93494.75;2089553;28;20029;-82
2021/04/04 00:32:39;;;;;;;4.57;3.20;;;;;;;-2.97;82.06;93496.09;2098206;28;20060;-81
2021/04/04 00:33:40;;;;;;;5.53;3.15;;;;;;;-2.92;81.85;93503.75;2086407;28;20447;-82
2021/04/04 00:34:40;;;;;;;7.22;3.08;;;;;;;-2.95;81.28;93493.94;2085486;28;20034;-82
2021/04/04 00:35:41;;;;;;;5.97;3.25;;;;;;;-2.96;81.80;93496.88;2102743;28;20598;-81
2021/04/04 00:36:41;;;;;;;3.33;2.70;;;;;;;-2.95;81.96;93491.31;2099552;28;20038;-81
2021/04/04 00:37:42;;;;;;;5.57;3.10;;;;;;;-2.99;81.75;93494.88;2102244;28;20071;-81
2021/04/04 00:38:43;;;;;;;3.85;3.10;;;;;;;-2.86;81.41;93493.84;2106667;28;20032;-82
2021/04/04 00:39:43;;;;;;;4.13;3.22;;;;;;;-3.01;81.79;93502.31;2089878;28;20848;-82
2021/04/04 00:40:44;;;;;;;5.20;3.00;;;;;;;-2.95;82.09;93493.94;2093792;28;20037;-80
2021/04/04 00:41:44;;;;;;;6.68;3.42;;;;;;;-3.08;81.81;93497.56;2092601;28;20465;-81
2021/04/04 00:42:45;;;;;;;4.78;3.15;;;;;;;-3.08;82.35;93502.81;2098329;28;20109;-81
2021/04/04 00:43:46;;;;;;;5.32;3.30;;;;;;;-2.94;82.12;93505.94;2102891;28;20063;-82
2021/04/04 00:44:46;;;;;;;4.32;3.10;;;;;;;-3.09;81.67;93496.06;2083613;28;20394;-81
2021/04/04 00:45:46;;;;;;;5.78;2.97;;;;;;;-3.07;82.26;93494.66;2085559;28;20060;-81
2021/04/04 00:46:47;;;;;;;5.25;3.20;;;;;;;-3.03;81.79;93492.16;2089634;28;20026;-82
2021/04/04 00:47:48;;;;;;;6.78;3.40;;;;;;;-3.00;81.74;93495.97;2089915;28;20070;-81
2021/04/04 00:48:50;;;;;;;6.60;3.28;;;;;;;-2.93;81.59;93497.00;2081558;28;20757;-81
2021/04/04 00:49:50;;;;;;;4.28;3.35;;;;;;;-3.03;81.43;93494.75;2089985;28;20436;-81
2021/04/04 00:50:50;;;;;;;6.63;3.38;;;;;;;-3.00;81.73;93496.75;2104188;28;20454;-81
2021/04/04 00:51:52;;;;;;;8.02;3.47;;;;;;;-3.07;81.42;93494.66;2081287;28;20061;-81
2021/04/04 00:52:53;;;;;;;5.22;3.00;;;;;;;-3.11;81.55;93495.63;2081458;28;20029;-81
2021/04/04 00:53:54;;;;;;;6.07;3.00;;;;;;;-3.06;81.50;93490.19;2073175;28;20445;-79
2021/04/04 00:54:54;;;;;;;5.07;3.25;;;;;;;-2.98;80.88;93486.75;2073192;28;20455;-81
2021/04/04 00:55:55;;;;;;;5.35;3.50;;;;;;;-3.04;81.54;93491.38;2085599;28;20440;-82
2021/04/04 00:56:56;;;;;;;5.25;3.30;;;;;;;-3.01;81.38;93492.59;2089513;28;20032;-80
2021/04/04 00:57:57;;;;;;;4.45;3.13;;;;;;;-3.10;81.35;93495.28;2081303;28;21085;-79
2021/04/04 00:58:58;;;;;;;5.88;3.28;;;;;;;-3.06;81.42;93487.56;2081454;28;20445;-81
2021/04/04 01:00:05;;;;;;;4.68;3.00;;;;;;;-3.07;81.31;93491.28;2081531;28;20029;-80
2021/04/04 01:01:06;;;;;;;6.65;3.30;;;;;;;-3.14;81.62;93489.16;2082737;28;21169;-81
2021/04/04 01:02:07;;;;;;;7.35;3.70;;;;;;;-3.22;82.04;93486.63;2085232;28;20470;-80
2021/04/04 01:03:07;;;;;;;5.50;3.20;;;;;;;-3.31;82.40;93487.44;2089254;28;20124;-82
2021/04/04 01:04:08;;;;;;;5.90;3.53;;;;;;;-3.23;82.06;93482.47;2081645;28;20025;-80
2021/04/04 01:05:16;;;;;;;3.95;3.45;;;;;;;-3.15;81.70;93479.03;2089307;28;20082;-79
2021/04/04 01:06:16;;;;;;;5.43;3.60;;;;;;;-3.21;82.20;93481.06;2083279;28;20385;-80
2021/04/04 01:07:17;;;;;;;8.65;3.78;;;;;;;-3.17;82.36;93468.13;2089226;28;20444;-81
2021/04/04 01:08:17;;;;;;;8.65;3.47;;;;;;;-3.28;82.20;93475.59;2097947;28;20028;-80
2021/04/04 01:09:20;;;;;;;6.53;3.55;;;;;;;-3.25;82.01;93479.41;2097607;28;20024;-80
2021/04/04 01:10:20;;;;;;;4.63;3.40;;;;;;;-3.21;82.14;93472.47;2089659;28;20025;-81
2021/04/04 01:11:39;;;;;;;4.97;3.67;;;;;;;-3.24;83.09;93484.34;2081350;28;20448;-81
2021/04/04 01:12:46;;;;;;;7.50;3.30;;;;;;;-3.27;83.00;93484.19;2092064;28;20024;-81
2021/04/04 01:14:01;;;;;;;5.43;3.10;;;;;;;-3.32;82.83;93479.94;2095731;28;20466;-81
2021/04/04 01:15:06;;;;;;;5.93;3.30;;;;;;;-3.36;83.13;93485.03;2099617;28;20439;-81
2021/04/04 01:16:16;;;;;;;5.35;3.28;;;;;;;-3.47;83.56;93488.31;2086094;28;20454;-80
2021/04/04 01:17:20;;;;;;;4.97;3.17;;;;;;;-3.42;83.32;93482.94;2083393;28;20440;-81
2021/04/04 01:18:29;;;;;;;4.78;3.40;;;;;;;-3.45;83.12;93476.50;2082232;28;20057;-81
2021/04/04 01:19:41;;;;;;;6.32;3.60;;;;;;;-3.38;83.32;93478.59;2090711;28;20971;-80
2021/04/04 01:20:54;;;;;;;4.95;3.35;;;;;;;-3.40;82.43;93478.16;2092919;28;20805;-80
2021/04/04 01:22:03;;;;;;;5.82;3.17;;;;;;;-3.36;82.66;93481.66;2089421;28;20501;-82
2021/04/04 01:23:29;;;;;;;6.55;3.50;;;;;;;-3.42;82.56;93477.72;2090374;28;20526;-81
2021/04/04 01:24:50;;;;;;;5.28;3.35;;;;;;;-3.39;82.36;93477.06;2084234;28;20033;-81
2021/04/04 01:25:56;;;;;;;6.15;3.30;;;;;;;-3.41;82.94;93480.00;2077201;28;20806;-80
2021/04/04 01:27:15;;;;;;;5.88;3.22;;;;;;;-3.36;82.59;93484.28;2094865;28;20476;-79
2021/04/04 01:28:23;;;;;;;3.78;3.00;;;;;;;-3.36;82.31;93490.25;2098787;28;20458;-80
2021/04/04 01:29:25;;;;;;;6.68;3.20;;;;;;;-3.43;82.74;93481.38;2090440;28;20435;-81
2021/04/04 01:30:30;;;;;;;4.30;3.08;;;;;;;-3.41;83.30;93484.47;2089626;28;20539;-81
2021/04/04 01:31:32;;;;;;;7.10;3.70;;;;;;;-3.39;83.54;93479.66;2082253;28;20542;-80
2021/04/04 01:32:35;;;;;;;4.65;3.10;;;;;;;-3.47;82.90;93485.72;2089494;28;20447;-81
2021/04/04 01:33:37;;;;;;;6.10;3.22;;;;;;;-3.44;83.38;93487.69;2093942;28;20820;-80
2021/04/04 01:34:39;;;;;;;7.03;3.72;;;;;;;-3.38;83.21;93487.22;2081421;28;20436;-81
2021/04/04 01:35:47;;;;;;;6.50;3.88;;;;;;;-3.45;82.72;93479.09;2081514;28;20490;-80
2021/04/04 01:36:54;;;;;;;7.03;3.55;;;;;;;-3.32;82.70;93485.94;2090363;28;20957;-82
2021/04/04 01:37:59;;;;;;;7.78;3.25;;;;;;;-3.32;82.02;93485.94;2092464;28;20432;-79
2021/04/04 01:39:03;;;;;;;6.57;3.70;;;;;;;-3.38;82.22;93484.59;2089893;28;20840;-80
2021/04/04 01:40:08;;;;;;;4.53;3.63;;;;;;;-3.46;82.59;93485.41;2090388;28;20471;-80
2021/04/04 01:41:28;;;;;;;4.72;3.20;;;;;;;-3.45;83.70;93489.56;2081766;28;21157;-81
2021/04/04 01:42:28;;;;;;;6.82;3.45;;;;;;;-3.47;82.47;93480.50;2085939;28;20841;-80
2021/04/04 01:43:30;;;;;;;4.75;3.53;;;;;;;-3.51;82.97;93490.84;2089202;28;20029;-79
2021/04/04 01:44:32;;;;;;;5.60;3.75;;;;;;;-3.52;83.03;93486.66;2097452;28;20028;-81
2021/04/04 01:45:33;;;;;;;4.78;3.45;;;;;;;-3.42;82.17;93488.16;2094149;28;20439;-79
2021/04/04 01:46:35;;;;;;;4.28;3.03;;;;;;;-3.46;82.88;93480.19;2101693;28;20454;-81
2021/04/04 01:47:37;;;;;;;7.40;3.72;;;;;;;-3.48;82.54;93484.94;2100981;28;20439;-80
2021/04/04 01:48:40;;;;;;;5.47;3.58;;;;;;;-3.40;82.38;93484.13;2089765;28;20435;-80
2021/04/04 01:49:43;;;;;;;5.05;3.30;;;;;;;-3.38;82.09;93486.41;2097151;28;20836;-79
2021/04/04 01:50:44;;;;;;;7.53;3.67;;;;;;;-3.40;82.31;93478.16;2093286;28;20451;-82
2021/04/04 01:51:46;;;;;;;6.18;3.40;;;;;;;-3.37;82.46;93480.13;2100668;28;20453;-81
2021/04/04 01:52:50;;;;;;;7.28;3.60;;;;;;;-3.38;82.01;93481.97;2094298;28;20905;-80
2021/04/04 01:53:51;;;;;;;7.72;3.50;;;;;;;-3.42;81.85;93482.94;2095594;28;20438;-80
2021/04/04 01:54:52;;;;;;;5.53;3.45;;;;;;;-3.48;82.30;93476.34;2089041;28;20538;-80
2021/04/04 01:55:53;;;;;;;4.88;3.22;;;;;;;-3.50;82.20;93486.38;2084206;28;20455;-81
2021/04/04 01:56:55;;;;;;;5.55;2.97;;;;;;;-3.47;82.63;93486.47;2089125;28;20025;-81
2021/04/04 01:57:55;;;;;;;3.72;3.08;;;;;;;-3.47;82.47;93483.09;2074372;28;21024;-81
2021/04/04 01:58:57;;;;;;;4.70;3.10;;;;;;;-3.65;82.82;93485.06;2095886;28;20463;-81
2021/04/04 02:00:00;;;;;;;6.40;3.33;;;;;;;-3.67;83.38;93482.78;2106112;28;20035;-81
2021/04/04 02:01:02;;;;;;;8.98;3.75;;;;;;;-3.63;83.35;93477.69;2082207;28;20486;-80
2021/04/04 02:02:04;;;;;;;4.97;3.92;;;;;;;-3.65;83.44;93480.59;2088798;28;20455;-81
2021/04/04 02:04:18;;;;;;;6.53;3.20;;;;;;;-3.63;83.81;93472.47;2139520;27;20186;-78
2021/04/04 02:05:19;;;;;;;6.63;3.60;;;;;;;-3.72;84.10;93469.91;2120141;28;20088;-77
2021/04/04 02:06:20;;;;;;;6.13;3.25;;;;;;;-3.72;83.25;93469.91;2114860;28;20490;-79
2021/04/04 02:07:20;;;;;;;6.32;3.80;;;;;;;-3.70;83.71;93475.56;2119949;28;20028;-78
2021/04/04 02:08:22;;;;;;;6.43;3.85;;;;;;;-3.66;82.63;93473.84;2097845;28;20025;-79
2021/04/04 02:09:24;;;;;;;6.30;3.63;;;;;;;-3.67;82.15;93467.09;2111243;28;20028;-77
2021/04/04 02:10:27;;;;;;;7.00;3.75;;;;;;;-3.63;82.41;93468.00;2109195;28;20453;-79
2021/04/04 02:11:31;;;;;;;7.75;3.70;;;;;;;-3.64;82.77;93471.72;2116346;27;20457;-79
2021/04/04 02:12:34;;;;;;;6.47;4.25;;;;;;;-3.62;83.29;93468.78;2118671;28;20996;-79
2021/04/04 02:13:36;;;;;;;6.03;3.58;;;;;;;-3.61;82.76;93468.44;2125272;27;20503;-79
2021/04/04 02:14:38;;;;;;;6.18;3.50;;;;;;;-3.63;82.31;93465.41;2117370;28;21042;-80
2021/04/04 02:15:40;;;;;;;8.75;3.42;;;;;;;-3.69;82.95;93466.66;2100891;28;20783;-78
2021/04/04 02:16:43;;;;;;;6.68;3.70;;;;;;;-3.61;82.68;93468.44;2121621;28;20417;-79
2021/04/04 02:17:47;;;;;;;4.47;3.60;;;;;;;-3.69;83.13;93465.88;2128927;27;21140;-79
2021/04/04 02:18:48;;;;;;;7.18;3.55;;;;;;;-3.69;83.75;93469.25;2109073;28;20541;-79
2021/04/04 02:19:49;;;;;;;6.35;3.83;;;;;;;-3.64;83.98;93473.56;2110452;27;20825;-78
2021/04/04 02:20:53;;;;;;;8.85;4.43;;;;;;;-3.66;85.02;93466.03;2115919;28;20490;-79
2021/04/04 02:21:57;;;;;;;6.78;4.22;;;;;;;-3.68;84.48;93473.41;2097434;28;20504;-79
2021/04/04 02:23:01;;;;;;;5.85;3.55;;;;;;;-3.72;84.58;93464.69;2100580;28;20451;-78
2021/04/04 02:24:05;;;;;;;8.25;3.88;;;;;;;-3.73;84.27;93465.78;2111646;27;20488;-78
2021/04/04 02:25:08;;;;;;;5.00;3.30;;;;;;;-3.69;83.54;93463.28;2116994;27;20437;-79
2021/04/04 02:26:09;;;;;;;5.47;3.38;;;;;;;-3.74;83.47;93464.22;2106384;28;20503;-80
2021/04/04 02:27:10;;;;;;;4.18;3.50;;;;;;;-3.77;84.24;93457.03;2104525;27;20479;-78
2021/04/04 02:28:10;;;;;;;5.70;3.50;;;;;;;-3.66;84.04;93460.78;2129981;27;20696;-79
2021/04/04 02:29:11;;;;;;;4.78;3.92;;;;;;;-3.64;84.10;93460.50;2120842;28;20529;-79
2021/04/04 02:30:15;;;;;;;5.28;3.53;;;;;;;-3.68;83.51;93454.38;2103816;28;20028;-79
2021/04/04 02:31:17;;;;;;;6.55;3.80;;;;;;;-3.68;84.16;93457.75;2100026;28;20078;-79
2021/04/04 02:32:20;;;;;;;6.07;3.40;;;;;;;-3.67;83.89;93461.88;2100984;28;20453;-78
2021/04/04 02:33:37;;;;;;;5.70;3.53;;;;;;;-3.70;83.35;93459.91;2108297;28;20555;-79
2021/04/04 02:34:40;;;;;;;6.10;3.47;;;;;;;-3.66;82.70;93462.66;2112992;28;20458;-79
2021/04/04 02:35:43;;;;;;;7.22;3.67;;;;;;;-3.64;82.94;93455.28;2113363;28;20429;-79
2021/04/04 02:36:44;;;;;;;8.85;3.47;;;;;;;-3.60;82.72;93461.38;2105338;28;20434;-78
2021/04/04 02:37:45;;;;;;;5.80;3.60;;;;;;;-3.62;82.64;93461.69;2113052;28;20529;-80
2021/04/04 02:38:51;;;;;;;5.75;3.58;;;;;;;-3.72;82.44;93466.53;2113015;27;20042;-79
2021/04/04 02:39:56;;;;;;;5.60;3.40;;;;;;;-3.70;82.16;93465.13;2121970;27;20437;-79
2021/04/04 02:40:59;;;;;;;6.75;3.35;;;;;;;-3.70;82.17;93464.34;2129930;27;20514;-78
2021/04/04 02:42:01;;;;;;;8.18;4.47;;;;;;;-3.67;82.60;93459.28;2121577;28;20437;-78
2021/04/04 02:43:02;;;;;;;4.88;3.55;;;;;;;-3.62;81.89;93458.31;2112876;28;20438;-79
2021/04/04 02:44:04;;;;;;;7.63;3.35;;;;;;;-3.68;82.19;93457.75;2112798;27;20493;-79
2021/04/04 02:45:07;;;;;;;6.70;3.45;;;;;;;-3.76;83.01;93463.03;2113705;28;20449;-79
2021/04/04 02:46:14;;;;;;;5.55;3.92;;;;;;;-3.73;83.17;93462.38;2113028;28;20445;-78
2021/04/04 02:47:18;;;;;;;7.03;3.45;;;;;;;-3.80;82.82;93460.28;2105917;28;20442;-79
2021/04/04 02:48:26;;;;;;;5.88;3.45;;;;;;;-3.80;82.78;93455.06;2106250;28;20465;-78
2021/04/04 02:49:32;;;;;;;4.53;3.60;;;;;;;-3.76;83.32;93455.19;2113966;28;20795;-79
2021/04/04 02:50:35;;;;;;;5.70;3.42;;;;;;;-3.71;82.62;93463.59;2110939;28;20545;-79
2021/04/04 02:51:49;;;;;;;5.68;3.80;;;;;;;-3.74;83.29;93459.00;2125244;27;20464;-79
2021/04/04 02:52:51;;;;;;;7.07;3.80;;;;;;;-3.76;83.58;93455.94;2120313;27;20460;-78
2021/04/04 02:53:54;;;;;;;4.97;3.40;;;;;;;-3.86;83.02;93467.53;2121140;27;20451;-79
2021/04/04 02:54:57;;;;;;;6.57;3.50;;;;;;;-3.87;82.96;93460.75;2113008;28;20489;-79
2021/04/04 02:56:00;;;;;;;4.75;3.20;;;;;;;-3.90;82.75;93455.44;2108331;28;20461;-79
2021/04/04 02:57:01;;;;;;;5.28;3.30;;;;;;;-3.92;83.22;93460.94;2111604;28;20445;-78
2021/04/04 02:58:07;;;;;;;6.85;3.78;;;;;;;-3.82;82.40;93457.19;2112972;28;20461;-78
2021/04/04 02:59:45;;;;;;;4.40;3.38;;;;;;;-3.88;82.64;93461.84;2113386;28;20878;-78
2021/04/04 03:00:47;;;;;;;6.28;3.42;;;;;;;-3.88;83.44;93453.25;2118952;27;20460;-78
2021/04/04 03:01:50;;;;;;;4.90;3.65;;;;;;;-4.01;83.02;93457.63;2109850;28;20461;-79
2021/04/04 03:02:53;;;;;;;6.82;3.90;;;;;;;-3.87;83.08;93454.78;2113346;27;20529;-79
2021/04/04 03:03:54;;;;;;;4.93;3.67;;;;;;;-3.90;83.09;93450.22;2112480;28;20474;-79
2021/04/04 03:04:56;;;;;;;6.18;3.85;;;;;;;-3.94;83.38;93457.91;2121182;28;20499;-79
2021/04/04 03:05:58;;;;;;;5.65;3.80;;;;;;;-3.96;83.61;93451.47;2113060;28;20035;-79
2021/04/04 03:06:59;;;;;;;5.22;3.65;;;;;;;-3.99;83.67;93458.09;2128328;27;20499;-78
2021/04/04 03:08:07;;;;;;;5.97;3.83;;;;;;;-3.94;83.28;93454.53;2116879;28;20460;-79
2021/04/04 03:09:09;;;;;;;6.65;4.07;;;;;;;-3.95;83.74;93456.38;2105851;28;20441;-79
2021/04/04 03:10:11;;;;;;;8.05;3.80;;;;;;;-4.01;84.54;93447.19;2104330;28;20508;-78
2021/04/04 03:11:13;;;;;;;7.47;3.92;;;;;;;-4.00;83.74;93450.56;2096578;28;20530;-79
2021/04/04 03:12:15;;;;;;;6.68;4.03;;;;;;;-3.91;84.33;93446.81;2120547;28;20421;-78
2021/04/04 03:13:21;;;;;;;5.50;3.72;;;;;;;-3.88;83.71;93448.03;2105231;28;20667;-79
2021/04/04 03:14:24;;;;;;;7.78;4.55;;;;;;;-3.88;84.20;93446.19;2114008;27;20446;-78
2021/04/04 03:15:26;;;;;;;8.02;3.90;;;;;;;-3.93;84.10;93450.84;2108072;28;21054;-79
2021/04/04 03:16:27;;;;;;;7.68;3.70;;;;;;;-3.93;84.29;93445.63;2109381;28;20499;-79
2021/04/04 03:17:30;;;;;;;5.88;3.70;;;;;;;-3.99;83.45;93449.50;2106932;28;20537;-79
2021/04/04 03:18:33;;;;;;;9.73;4.13;;;;;;;-3.99;83.20;93455.47;2098497;28;20447;-79
2021/04/04 03:19:34;;;;;;;9.25;4.15;;;;;;;-3.98;84.09;93453.63;2095468;28;20535;-79
2021/04/04 03:20:35;;;;;;;6.30;4.00;;;;;;;-4.00;83.52;93455.78;2093724;28;20475;-78
2021/04/04 03:21:36;;;;;;;5.00;3.72;;;;;;;-3.98;83.70;93464.06;2106560;28;21030;-79
2021/04/04 03:22:39;;;;;;;5.97;3.70;;;;;;;-4.08;83.53;93452.91;2109532;28;20464;-78
2021/04/04 03:23:41;;;;;;;5.70;3.80;;;;;;;-4.07;83.36;93456.28;2101742;28;20477;-78
2021/04/04 03:24:43;;;;;;;6.90;3.70;;;;;;;-4.05;83.65;93459.34;2109960;28;20450;-79
2021/04/04 03:25:44;;;;;;;7.40;4.28;;;;;;;-4.14;84.60;93461.97;2119752;27;20500;-78
2021/04/04 03:26:45;;;;;;;4.60;4.00;;;;;;;-4.15;84.42;93464.91;2115804;27;20433;-80
2021/04/04 03:27:48;;;;;;;8.00;4.13;;;;;;;-4.16;84.68;93464.16;2111189;28;20848;-79
2021/04/04 03:28:49;;;;;;;5.05;3.95;;;;;;;-4.09;85.34;93453.22;2098539;28;20036;-77
2021/04/04 03:29:50;;;;;;;5.43;3.70;;;;;;;-4.02;84.95;93463.16;2100990;28;20458;-79
2021/04/04 03:30:52;;;;;;;6.60;4.10;;;;;;;-4.11;84.75;93463.97;2104034;28;20024;-78
2021/04/04 03:31:53;;;;;;;6.47;4.30;;;;;;;-4.12;84.95;93462.44;2106289;28;20452;-79
2021/04/04 03:32:54;;;;;;;6.75;4.05;;;;;;;-4.06;85.14;93466.41;2098284;28;20454;-79
2021/04/04 03:33:59;;;;;;;6.43;4.25;;;;;;;-4.05;84.62;93460.09;2095409;28;20986;-81
2021/04/04 03:35:00;;;;;;;5.85;3.90;;;;;;;-4.21;85.18;93455.75;2099109;28;20024;-78
2021/04/04 03:36:00;;;;;;;6.18;4.30;;;;;;;-4.16;85.62;93458.94;2115102;28;20820;-80
2021/04/04 03:37:01;;;;;;;9.00;4.07;;;;;;;-4.07;85.62;93458.91;2113594;28;20094;-79
2021/04/04 03:38:05;;;;;;;4.55;3.97;;;;;;;-4.14;84.45;93461.97;2106547;28;20036;-79
2021/04/04 03:39:07;;;;;;;6.55;4.20;;;;;;;-4.15;84.71;93457.84;2106407;28;20027;-79
2021/04/04 03:40:08;;;;;;;7.18;4.45;;;;;;;-4.08;84.39;93452.16;2106734;28;20446;-79
2021/04/04 03:41:10;;;;;;;6.78;3.92;;;;;;;-4.16;83.22;93458.94;2097829;28;20439;-78
2021/04/04 03:42:12;;;;;;;5.32;3.63;;;;;;;-4.16;84.16;93464.16;2101676;28;20545;-80
2021/04/04 03:43:27;;;;;;;5.75;4.15;;;;;;;-4.16;84.39;93461.56;2101834;28;20540;-79
2021/04/04 03:44:32;;;;;;;9.05;4.38;;;;;;;-4.06;84.36;93458.56;2106805;28;20458;-79
2021/04/04 03:45:33;;;;;;;4.47;3.95;;;;;;;-4.14;84.25;93459.38;2104876;28;20454;-79
2021/04/04 03:46:34;;;;;;;6.43;4.00;;;;;;;-4.07;84.07;93464.88;2089625;28;20516;-79
2021/04/04 03:47:35;;;;;;;7.60;4.30;;;;;;;-4.24;84.00;93464.97;2097844;28;20474;-79
2021/04/04 03:48:39;;;;;;;5.90;4.32;;;;;;;-4.25;85.50;93471.25;2102229;28;20028;-79
2021/04/04 03:49:41;;;;;;;6.07;4.05;;;;;;;-4.21;84.68;93466.19;2111034;28;20542;-78
2021/04/04 03:50:46;;;;;;;6.68;4.40;;;;;;;-4.23;84.98;93457.91;2110821;28;20459;-79
2021/04/04 03:51:47;;;;;;;4.50;4.00;;;;;;;-4.25;84.19;93466.03;2102815;28;21071;-80
2021/04/04 03:52:49;;;;;;;7.95;4.88;;;;;;;-4.20;84.44;93465.09;2111702;28;20493;-79
2021/04/04 03:53:51;;;;;;;8.95;4.45;;;;;;;-4.21;84.87;93471.41;2098616;28;20137;-79
2021/04/04 03:54:52;;;;;;;5.60;4.30;;;;;;;-4.06;84.73;93457.81;2089854;28;20972;-78
2021/04/04 03:55:58;;;;;;;9.05;4.43;;;;;;;-4.13;84.62;93462.75;2103571;28;20499;-79
2021/04/04 03:56:59;;;;;;;8.25;4.03;;;;;;;-4.17;84.65;93464.44;2111817;28;20031;-78
2021/04/04 03:58:01;;;;;;;7.82;4.80;;;;;;;-4.20;85.24;93458.03;2107102;28;20555;-79
2021/04/04 03:59:07;;;;;;;5.70;4.63;;;;;;;-4.21;85.36;93458.34;2103844;28;20493;-80
2021/04/04 04:00:08;;;;;;;6.10;4.63;;;;;;;-4.24;85.12;93451.91;2107161;28;20454;-80
2021/04/04 04:01:12;;;;;;;11.88;4.75;;;;;;;-4.36;85.23;93457.03;2098246;28;20454;-79
2021/04/04 04:02:12;;;;;;;7.88;4.50;;;;;;;-4.33;85.00;93453.78;2106895;28;20434;-79
2021/04/04 04:03:15;;;;;;;9.60;4.88;;;;;;;-4.35;85.11;93454.09;2107006;28;20465;-79
2021/04/04 04:04:18;;;;;;;7.55;4.95;;;;;;;-4.32;84.48;93455.31;2114106;28;20103;-79
2021/04/04 04:05:22;;;;;;;8.40;4.80;;;;;;;-4.31;85.79;93456.84;2116433;27;20928;-79
2021/04/04 04:06:23;;;;;;;8.60;5.05;;;;;;;-4.33;85.35;93448.56;2123301;27;20453;-79
2021/04/04 04:07:25;;;;;;;5.72;4.35;;;;;;;-4.32;85.49;93452.72;2104543;28;20442;-79
2021/04/04 04:08:26;;;;;;;8.07;5.22;;;;;;;-4.34;85.19;93454.88;2100447;28;20123;-80
2021/04/04 04:09:27;;;;;;;7.45;4.32;;;;;;;-4.32;86.21;93455.31;2106355;28;20426;-79
2021/04/04 04:10:29;;;;;;;11.25;4.72;;;;;;;-4.39;84.96;93447.19;2103899;28;20465;-78
2021/04/04 04:11:31;;;;;;;9.20;4.93;;;;;;;-4.40;85.58;93449.06;2100993;28;20029;-79
2021/04/04 04:12:33;;;;;;;6.78;4.65;;;;;;;-4.41;85.75;93449.38;2103509;28;20526;-79
2021/04/04 04:13:35;;;;;;;6.50;4.60;;;;;;;-4.38;87.23;93449.53;2106261;28;20968;-80
2021/04/04 04:14:36;;;;;;;7.32;4.35;;;;;;;-4.32;86.00;93447.50;2097145;28;20991;-79
2021/04/04 04:15:37;;;;;;;9.45;4.97;;;;;;;-4.35;85.69;93454.09;2098134;28;20450;-79
2021/04/04 04:16:38;;;;;;;7.43;4.50;;;;;;;-4.31;86.00;93454.22;2097826;28;20457;-80
2021/04/04 04:17:40;;;;;;;8.35;4.90;;;;;;;-4.31;85.60;93452.38;2093630;28;20040;-79
2021/04/04 04:18:45;;;;;;;4.53;4.03;;;;;;;-4.31;85.48;93449.78;2106553;28;20946;-79
2021/04/04 04:19:46;;;;;;;7.47;4.30;;;;;;;-4.29;85.44;93452.09;2106656;28;20965;-80
2021/04/04 04:20:47;;;;;;;7.00;4.15;;;;;;;-4.29;85.83;93453.94;2098210;28;20451;-79
2021/04/04 04:21:48;;;;;;;6.22;4.15;;;;;;;-4.28;86.10;93448.41;2090422;28;20067;-79
2021/04/04 04:22:49;;;;;;;6.53;4.63;;;;;;;-4.28;86.14;93450.25;2102119;28;20802;-78
2021/04/04 04:23:50;;;;;;;8.57;4.55;;;;;;;-4.24;85.77;93448.53;2115178;28;20028;-79
2021/04/04 04:24:51;;;;;;;6.80;4.50;;;;;;;-4.29;85.22;93443.50;2098113;28;20573;-81
2021/04/04 04:25:53;;;;;;;6.78;4.57;;;;;;;-4.30;85.76;93453.19;2098419;28;20060;-80
2021/04/04 04:26:54;;;;;;;7.20;4.28;;;;;;;-4.35;84.97;93448.09;2102609;28;20602;-79
2021/04/04 04:27:57;;;;;;;8.75;4.43;;;;;;;-4.35;84.33;93440.28;2097986;28;20469;-80
2021/04/04 04:28:59;;;;;;;7.60;4.35;;;;;;;-4.28;85.43;93453.63;2098926;28;20032;-80
2021/04/04 04:30:02;;;;;;;9.10;4.38;;;;;;;-4.27;84.74;93438.72;2102218;28;20446;-81
2021/04/04 04:31:07;;;;;;;6.88;4.80;;;;;;;-4.33;84.50;93443.34;2090745;28;20454;-79
2021/04/04 04:32:08;;;;;;;7.03;4.25;;;;;;;-4.32;84.25;93444.88;2092897;28;20443;-79
2021/04/04 04:33:12;;;;;;;6.22;4.18;;;;;;;-4.33;nan;93453.78;2107136;27;20517;-80
2021/04/04 04:34:14;;;;;;;7.10;4.10;;;;;;;-4.38;85.30;93449.53;2110861;28;20442;-79
2021/04/04 04:35:17;;;;;;;6.78;4.00;;;;;;;-4.40;85.07;93456.13;2097887;28;20516;-80
2021/04/04 04:36:20;;;;;;;7.18;4.50;;;;;;;-4.46;85.21;93445.09;2093891;28;20447;-79
2021/04/04 04:37:22;;;;;;;6.88;4.05;;;;;;;-4.38;85.78;93446.91;2095089;28;20443;-80
2021/04/04 04:38:25;;;;;;;6.07;4.43;;;;;;;-4.46;86.18;93444.34;2094243;28;20457;-79
2021/04/04 04:39:26;;;;;;;6.10;4.53;;;;;;;-4.45;86.53;93444.00;2099024;28;20534;-79
2021/04/04 04:40:27;;;;;;;11.02;4.18;;;;;;;-4.42;85.08;93450.47;2097941;28;20458;-80
2021/04/04 04:41:32;;;;;;;7.32;4.35;;;;;;;-4.45;85.96;93451.84;2102292;28;20081;-78
2021/04/04 04:42:40;;;;;;;8.55;4.22;;;;;;;-4.43;86.69;93441.09;2106674;28;20968;-79
2021/04/04 04:43:44;;;;;;;6.57;4.40;;;;;;;-4.58;86.13;93444.97;2105510;28;20504;-79
2021/04/04 04:44:47;;;;;;;5.57;4.38;;;;;;;-4.47;86.57;93446.19;2105719;28;20439;-80
2021/04/04 04:45:48;;;;;;;6.97;4.20;;;;;;;-4.37;86.37;93447.66;2106707;28;20886;-80
2021/04/04 04:46:49;;;;;;;7.97;4.47;;;;;;;-4.49;85.96;93450.16;2106416;28;20483;-78
2021/04/04 04:47:53;;;;;;;6.60;4.35;;;;;;;-4.57;86.44;93446.50;2097993;28;20508;-79
2021/04/04 04:48:54;;;;;;;8.32;4.40;;;;;;;-4.50;86.89;93448.66;2115432;27;20028;-79
2021/04/04 04:49:55;;;;;;;8.57;4.22;;;;;;;-4.47;85.88;93456.63;2106001;28;20450;-80
2021/04/04 04:50:55;;;;;;;8.88;4.35;;;;;;;-4.52;86.04;93451.56;2106482;28;20020;-78
2021/04/04 04:51:56;;;;;;;8.90;4.60;;;;;;;-4.50;85.74;93446.03;2106445;28;20055;-79
2021/04/04 04:53:00;;;;;;;7.20;4.53;;;;;;;-4.56;85.65;93451.44;2106434;28;20448;-79
2021/04/04 04:54:02;;;;;;;6.13;4.50;;;;;;;-4.49;85.69;93447.56;2106627;28;20500;-77
2021/04/04 04:55:06;;;;;;;6.68;4.35;;;;;;;-4.51;85.49;93453.09;2106834;28;20530;-79
2021/04/04 04:56:06;;;;;;;6.35;3.88;;;;;;;-4.50;85.60;93448.66;2098552;28;20482;-79
2021/04/04 04:57:12;;;;;;;8.98;4.93;;;;;;;-4.44;85.93;93453.38;2097867;28;20443;-80